Biak, Biak Frans Kaisiepo Airport (WABB)

NameBiak Frans Kaisiepo Airport
CityBiak
CountryIndonesia
ICAOWABB
IATABIK
Altitude14 m
CoordinatesGoogle Map
Live Air TrafficLiveATC.net
METARWABB 280400Z 11004KT 9999 SCT018 BKN100 30/26 Q1009 NOSIG
2019-05-28 04:00:00 Wind: East (110°) 2.06 m/s - Visibility: > 10000 m - Temperature: 30 °C - Dew point: 26 °C - Humidity: 79.2% - Pressure: 1009 hPa
Statistics

The table below shows the detailed information of all flights to/from Biak, Biak Frans Kaisiepo Airport (WABB).